Okoboji, IA (51355)

9:14 AM CDT on April 19, 2015 (GMT -0500)
Milford Fire Station | | Change Station
CLOSE
Current Station
Personal Weather Station
Location: Milford, IA
Elevation: 1443 ft
Nearby Weather Stations

Elev 1443 ft 43.33 °N, 95.15 °W | Updated 1 second ago

Overcast
Overcast
54.3 °F
Feels Like 54.3 °F
N
2.0
Wind Variable Wind from West
Gusts 8.0 mph

Today
High -- | Low -- °F
--% Chance of Precip.
Yesterday
High -- | Low -- °F
Precip. -- in
6:32 AM 8:08 PM
New Moon, 1% visible
Pressure 29.71 in
Visibility 4.0 miles
Clouds Overcast 700 ft
Dew Point 54 °F
Humidity 98%
Rainfall 0.02 in
Snow Depth Not available.
UV 1 out of 12
Pollen 9.50 out of 12
Air Quality Not available.
Flu Activity Local Activity
METAR KSPW 191353Z AUTO 26007KT 4SM BR OVC007 13/13 A2971 RMK AO2 CIG 005V011 SLP059 T01330128 TSNO

More Conditions Fewer Conditions

Pressure 29.71 in
Visibility 4.0 miles
Clouds Overcast 700 ft
Dew Point 54 °F
Humidity 98%
Rainfall 0.02 in
Snow Depth Not available.
UV 1 out of 12
Pollen 9.50 out of 12
Air Quality Not available.
Flu Activity Local Activity
METAR KSPW 191353Z AUTO 26007KT 4SM BR OVC007 13/13 A2971 RMK AO2 CIG 005V011 SLP059 T01330128 TSNO

More Conditions Fewer Conditions

10-Day Weather Forecast

Almanac

Astronomy

Apr. 19, 2015 Rise Set
Actual Time
Civil Twilight
Nautical Twilight
Astronomical Twilight
Moon
Length of Visible Light
Length of Day
Tomorrow will be .
, % of the Moon is Illuminated

Today's Extremes

State Highs State Lows

Community

WunderPhotos

Upload Photos

1,814,807 photos uploaded!

WunderBlogs® & News

Nearby

Air Quality

  Air Quality AQ Index Pollutant
Not available.

Snow Depth

Station Depth Elevation

Earthquake Activity

City Distance Mag. Time & Date
Minimum magnitude displayed is 2.5.

Coastal Water Temperatures

Place Temperature

Stations

Nearby Weather Stations

Station Location Temp. Windchill Dew Point Humidity Wind Precip. Elev Updated Type